Time;durP1;ratioP1;P1;durP2;ratioP2;P2;SDS_P1;SDS_P2;PMS_P1;PMS_P2;Temp;Humidity;BMP_temperature;BMP_pressure;BME280_temperature;BME280_humidity;BME280_pressure;Samples;Min_cycle;Max_cycle;Signal;HPM_P1;HPM_P2
2021/12/23 00:02:06;;;;;;;14.40;10.07;;;-0.10;99.90;;;;;;5100552;28;20088;-60
2021/12/23 00:04:32;;;;;;;12.77;9.50;;;0.00;99.90;;;;;;5130842;27;20198;-60
2021/12/23 00:06:58;;;;;;;15.00;9.73;;;-0.10;99.90;;;;;;5111775;27;20070;-60
2021/12/23 00:09:31;;;;;;;14.38;10.18;;;-0.10;99.90;;;;;;5098885;28;20054;-60
2021/12/23 00:11:57;;;;;;;13.05;9.35;;;0.10;99.90;;;;;;5130278;27;20051;-60
2021/12/23 00:14:22;;;;;;;13.65;10.30;;;0.10;99.90;;;;;;5101155;28;20052;-60
2021/12/23 00:17:05;;;;;;;14.15;9.77;;;-0.10;99.90;;;;;;5129637;27;20047;-60
2021/12/23 00:24:41;;;;;;;15.82;10.07;;;-0.30;99.90;;;;;;5093590;28;20040;-61
2021/12/23 00:27:08;;;;;;;13.90;10.60;;;-0.30;99.90;;;;;;5097395;28;20047;-61
2021/12/23 00:29:34;;;;;;;16.65;10.70;;;-0.10;99.90;;;;;;5100423;28;20039;-60
2021/12/23 00:32:04;;;;;;;12.82;9.85;;;-0.20;99.90;;;;;;5101340;27;20040;-60
2021/12/23 00:34:29;;;;;;;13.70;9.93;;;-0.20;99.90;;;;;;5099225;28;20049;-60
2021/12/23 00:36:57;;;;;;;19.35;10.15;;;-0.20;99.90;;;;;;5100373;28;20031;-60
2021/12/23 00:39:23;;;;;;;12.57;10.48;;;-0.20;99.90;;;;;;5131228;27;20123;-60
2021/12/23 00:41:49;;;;;;;15.10;10.40;;;-0.20;99.90;;;;;;5102819;27;20545;-60
2021/12/23 00:44:15;;;;;;;16.15;10.00;;;-0.20;99.90;;;;;;5100194;27;20085;-60
2021/12/23 00:46:40;;;;;;;16.35;10.60;;;-0.20;99.90;;;;;;5099679;27;20043;-60
2021/12/23 00:49:06;;;;;;;15.45;10.43;;;-0.20;99.90;;;;;;5129861;27;20036;-60
2021/12/23 00:51:33;;;;;;;19.35;10.40;;;-0.30;99.90;;;;;;5133527;27;20097;-60
2021/12/23 00:54:04;;;;;;;15.88;10.90;;;-0.10;99.90;;;;;;5101458;27;20136;-60
2021/12/23 00:56:31;;;;;;;12.57;10.05;;;-0.30;99.90;;;;;;5096286;28;20040;-60
2021/12/23 00:58:56;;;;;;;13.65;9.98;;;-0.30;99.90;;;;;;5101178;27;20028;-60
2021/12/23 01:01:22;;;;;;;14.18;10.82;;;-0.20;99.90;;;;;;5098269;27;20097;-60
2021/12/23 01:03:47;;;;;;;16.08;10.30;;;-0.20;99.90;;;;;;5099175;27;20177;-60
2021/12/23 01:06:13;;;;;;;13.10;10.00;;;-0.10;99.90;;;;;;5097680;28;20047;-60
2021/12/23 01:08:39;;;;;;;15.68;10.98;;;0.00;99.90;;;;;;5099910;27;20039;-60
2021/12/23 01:11:04;;;;;;;15.68;10.38;;;0.40;99.90;;;;;;5100835;28;20043;-60
2021/12/23 01:13:30;;;;;;;14.20;10.93;;;0.00;99.90;;;;;;5101520;28;20478;-60
2021/12/23 01:16:00;;;;;;;15.57;9.55;;;0.00;99.90;;;;;;5128139;27;20465;-61
2021/12/23 01:18:36;;;;;;;14.82;9.88;;;0.00;99.90;;;;;;5101530;27;20063;-60
2021/12/23 01:21:04;;;;;;;15.15;10.73;;;0.00;99.90;;;;;;5129402;27;20043;-60
2021/12/23 01:23:34;;;;;;;16.27;10.68;;;0.20;99.90;;;;;;5099689;27;20047;-60
2021/12/23 01:26:00;;;;;;;15.85;11.20;;;0.20;99.90;;;;;;5096030;28;20043;-60
2021/12/23 01:28:26;;;;;;;16.08;11.10;;;0.20;99.90;;;;;;5098652;28;20138;-60
2021/12/23 01:30:52;;;;;;;14.77;11.48;;;0.20;99.90;;;;;;5097280;27;20489;-60
2021/12/23 01:33:17;;;;;;;14.68;11.15;;;0.10;99.90;;;;;;5098217;27;20048;-60
2021/12/23 01:35:45;;;;;;;15.57;10.93;;;0.10;99.90;;;;;;5100241;27;20174;-60
2021/12/23 01:38:11;;;;;;;14.82;10.57;;;0.10;99.90;;;;;;5130176;27;20092;-60
2021/12/23 01:40:37;;;;;;;14.52;9.80;;;0.10;99.90;;;;;;5098784;27;20042;-60
2021/12/23 01:43:04;;;;;;;17.20;10.88;;;0.00;99.90;;;;;;5100655;28;20063;-60
2021/12/23 01:45:32;;;;;;;14.07;10.70;;;0.00;99.90;;;;;;5082461;28;20091;-60
2021/12/23 01:47:58;;;;;;;15.68;10.43;;;0.00;99.90;;;;;;5099921;27;21220;-60
2021/12/23 01:50:27;;;;;;;14.55;10.43;;;0.00;99.90;;;;;;5099507;28;20049;-60
2021/12/23 01:52:58;;;;;;;11.70;10.00;;;-0.10;99.90;;;;;;5099454;27;20039;-60
2021/12/23 01:55:24;;;;;;;16.83;11.07;;;0.00;99.90;;;;;;5099139;27;20379;-60
2021/12/23 01:57:50;;;;;;;15.60;10.68;;;-0.10;99.90;;;;;;5098401;28;20096;-60
2021/12/23 02:00:18;;;;;;;15.02;10.80;;;-0.10;99.90;;;;;;5098277;28;20126;-60
2021/12/23 02:02:44;;;;;;;15.48;10.82;;;-0.10;99.90;;;;;;5099588;27;20043;-60
2021/12/23 02:05:11;;;;;;;14.45;11.40;;;0.10;99.90;;;;;;5096298;28;20398;-60
2021/12/23 02:07:37;;;;;;;17.33;11.68;;;0.00;99.90;;;;;;5101944;28;20046;-60
2021/12/23 02:10:05;;;;;;;18.88;11.48;;;0.00;99.90;;;;;;5101737;27;20039;-60
2021/12/23 02:12:31;;;;;;;12.90;10.60;;;0.00;99.90;;;;;;5099277;28;20058;-60
2021/12/23 02:14:56;;;;;;;16.60;11.40;;;0.00;99.90;;;;;;5097279;28;20032;-61
2021/12/23 02:17:22;;;;;;;16.75;11.07;;;0.00;99.90;;;;;;5099129;28;20036;-60
2021/12/23 02:19:52;;;;;;;17.20;11.55;;;0.00;99.90;;;;;;5097754;27;20043;-60
2021/12/23 02:22:17;;;;;;;18.05;12.20;;;0.00;99.90;;;;;;5098459;28;20044;-60
2021/12/23 02:24:43;;;;;;;16.20;11.65;;;-0.10;99.90;;;;;;5128808;27;20054;-60
2021/12/23 02:27:11;;;;;;;15.57;11.52;;;0.00;99.90;;;;;;5129221;27;20039;-60
2021/12/23 02:29:37;;;;;;;16.77;11.77;;;0.00;99.90;;;;;;5099254;27;20055;-60
2021/12/23 02:32:03;;;;;;;18.77;12.07;;;0.00;99.90;;;;;;5127898;27;20044;-60
2021/12/23 02:34:28;;;;;;;15.13;10.98;;;0.00;99.90;;;;;;5097943;28;20032;-60
2021/12/23 02:36:58;;;;;;;14.68;11.38;;;0.00;99.90;;;;;;5099271;28;20036;-60
2021/12/23 02:39:26;;;;;;;17.08;11.27;;;0.00;99.90;;;;;;5128375;27;20088;-60
2021/12/23 02:41:52;;;;;;;16.10;11.18;;;0.00;99.90;;;;;;5128538;27;20446;-60
2021/12/23 02:44:20;;;;;;;17.17;12.00;;;0.00;99.90;;;;;;5096815;28;20180;-60
2021/12/23 02:46:46;;;;;;;17.80;12.52;;;0.00;99.90;;;;;;5097988;27;20054;-60
2021/12/23 02:49:12;;;;;;;17.17;11.30;;;0.00;99.90;;;;;;5101628;27;20034;-60
2021/12/23 02:51:38;;;;;;;19.55;12.55;;;0.00;99.90;;;;;;5097844;28;20040;-60
2021/12/23 02:54:04;;;;;;;15.18;11.73;;;0.00;99.90;;;;;;5098370;28;20110;-60
2021/12/23 02:56:30;;;;;;;17.55;12.82;;;0.00;99.90;;;;;;5096476;27;20418;-60
2021/12/23 02:58:56;;;;;;;19.65;12.98;;;0.00;99.90;;;;;;5097373;27;20078;-60
2021/12/23 03:01:22;;;;;;;16.45;11.63;;;0.10;99.90;;;;;;5094702;27;20158;-60
2021/12/23 03:03:48;;;;;;;17.00;12.48;;;0.00;99.90;;;;;;5128558;27;20444;-60
2021/12/23 03:06:18;;;;;;;19.02;12.93;;;0.30;99.90;;;;;;5097390;28;20174;-60
2021/12/23 03:09:05;;;;;;;15.07;11.68;;;0.10;99.90;;;;;;5095161;27;20048;-61
2021/12/23 03:11:32;;;;;;;19.35;12.40;;;0.00;99.90;;;;;;5095046;28;20051;-60
2021/12/23 03:13:58;;;;;;;17.55;13.20;;;0.10;99.90;;;;;;5099199;28;20035;-60
2021/12/23 03:16:29;;;;;;;19.15;12.98;;;0.00;99.90;;;;;;5098093;27;20032;-60
2021/12/23 03:18:55;;;;;;;17.55;12.95;;;0.10;99.90;;;;;;5114828;27;20044;-60
2021/12/23 03:21:21;;;;;;;16.08;12.38;;;0.00;99.90;;;;;;5096320;28;20101;-60
2021/12/23 03:23:47;;;;;;;18.98;14.07;;;0.10;99.90;;;;;;5099409;28;20526;-60
2021/12/23 03:26:13;;;;;;;18.35;13.45;;;0.10;99.90;;;;;;5127168;27;20048;-60
2021/12/23 03:28:39;;;;;;;16.75;12.60;;;0.10;99.90;;;;;;5099477;27;20080;-60
2021/12/23 03:31:05;;;;;;;18.98;12.73;;;0.20;99.90;;;;;;5100515;27;20386;-60
2021/12/23 03:33:31;;;;;;;18.60;13.10;;;0.20;99.90;;;;;;5101265;27;20048;-60
2021/12/23 03:35:57;;;;;;;16.95;12.20;;;0.20;99.90;;;;;;5099276;28;20042;-60
2021/12/23 03:38:24;;;;;;;17.77;13.75;;;0.30;99.90;;;;;;5101391;27;20158;-60
2021/12/23 03:40:50;;;;;;;19.65;13.30;;;0.20;99.90;;;;;;5101097;28;20042;-60
2021/12/23 03:43:17;;;;;;;17.25;13.20;;;0.20;99.90;;;;;;5114041;27;20040;-60
2021/12/23 03:45:44;;;;;;;19.75;13.43;;;0.20;99.90;;;;;;5102623;28;20042;-60
2021/12/23 03:48:15;;;;;;;17.27;12.32;;;0.20;99.90;;;;;;5100072;28;20529;-60
2021/12/23 03:50:41;;;;;;;16.58;13.25;;;0.20;99.90;;;;;;5100710;27;20525;-60
2021/12/23 03:53:07;;;;;;;18.08;13.32;;;0.20;99.90;;;;;;5101819;27;20751;-60
2021/12/23 03:55:33;;;;;;;18.75;13.55;;;0.20;99.90;;;;;;5101818;27;20048;-60
2021/12/23 03:57:58;;;;;;;20.45;13.30;;;0.20;99.90;;;;;;5100620;28;20027;-60
2021/12/23 04:00:25;;;;;;;18.88;14.10;;;0.20;99.90;;;;;;5131027;27;20108;-60
2021/12/23 04:02:52;;;;;;;19.02;13.57;;;0.30;99.90;;;;;;5102653;28;20036;-60
2021/12/23 04:05:19;;;;;;;19.13;13.73;;;0.30;99.90;;;;;;5104258;28;20067;-60
2021/12/23 04:07:45;;;;;;;20.98;13.77;;;0.30;99.90;;;;;;5101224;28;20453;-60
2021/12/23 04:10:15;;;;;;;20.40;14.18;;;0.30;99.90;;;;;;5105243;28;20398;-60
2021/12/23 04:12:42;;;;;;;17.10;12.75;;;0.20;99.90;;;;;;5132129;27;20232;-60
2021/12/23 04:15:08;;;;;;;21.33;14.15;;;0.40;99.90;;;;;;5099259;28;20401;-60
2021/12/23 04:17:33;;;;;;;20.17;14.00;;;0.30;99.90;;;;;;5101432;27;20039;-61
2021/12/23 04:20:13;;;;;;;21.50;14.68;;;0.30;99.90;;;;;;5099687;28;20047;-61
2021/12/23 04:22:39;;;;;;;19.83;12.95;;;0.30;99.90;;;;;;5128318;27;20601;-60
2021/12/23 04:25:05;;;;;;;17.77;13.45;;;0.40;99.90;;;;;;5100420;28;20418;-60
2021/12/23 04:27:30;;;;;;;16.77;13.70;;;0.30;99.90;;;;;;5098097;28;20501;-60
2021/12/23 04:29:56;;;;;;;22.00;13.30;;;0.30;99.90;;;;;;5100620;28;20063;-60
2021/12/23 04:32:21;;;;;;;21.85;15.45;;;0.30;99.90;;;;;;5099990;28;20134;-60
2021/12/23 04:34:50;;;;;;;19.20;13.95;;;0.40;99.90;;;;;;5097775;28;20052;-60
2021/12/23 04:37:16;;;;;;;20.73;14.25;;;0.30;99.90;;;;;;5131350;27;20044;-60
2021/12/23 04:39:42;;;;;;;20.23;14.70;;;0.30;99.90;;;;;;5102428;28;20035;-60
2021/12/23 04:42:07;;;;;;;19.25;14.13;;;0.60;99.90;;;;;;5102245;28;20051;-60
2021/12/23 04:44:33;;;;;;;19.67;14.30;;;0.30;99.90;;;;;;5098682;28;20056;-60
2021/12/23 04:46:59;;;;;;;21.85;15.63;;;0.30;99.90;;;;;;5131809;27;20677;-60
2021/12/23 04:49:25;;;;;;;21.85;15.00;;;0.40;99.90;;;;;;5101007;28;20406;-60
2021/12/23 04:51:50;;;;;;;20.92;14.45;;;0.70;99.90;;;;;;5101142;28;20787;-60
2021/12/23 04:54:16;;;;;;;16.13;13.02;;;0.40;99.90;;;;;;5099175;28;20039;-60
2021/12/23 04:56:42;;;;;;;18.75;14.18;;;0.50;99.90;;;;;;5097827;28;20399;-60
2021/12/23 04:59:07;;;;;;;22.52;15.40;;;0.50;99.90;;;;;;5129894;27;20089;-60
2021/12/23 05:01:33;;;;;;;21.52;15.40;;;0.50;99.90;;;;;;5128110;27;20039;-60
2021/12/23 05:03:59;;;;;;;21.23;14.15;;;0.50;99.90;;;;;;5098656;28;20510;-61
2021/12/23 05:06:25;;;;;;;22.17;14.45;;;0.40;99.90;;;;;;5098710;28;20040;-60
2021/12/23 05:08:51;;;;;;;19.42;14.40;;;0.50;99.90;;;;;;5128498;27;20063;-60
2021/12/23 05:11:16;;;;;;;19.38;14.52;;;0.50;99.90;;;;;;5096226;28;20474;-60
2021/12/23 05:13:42;;;;;;;17.58;14.27;;;0.50;99.90;;;;;;5127507;27;20127;-60
2021/12/23 05:16:08;;;;;;;20.98;14.95;;;0.50;99.90;;;;;;5099526;28;20093;-60
2021/12/23 05:18:34;;;;;;;20.17;14.25;;;0.50;99.90;;;;;;5103221;27;20034;-60
2021/12/23 05:20:59;;;;;;;17.83;13.55;;;0.40;99.90;;;;;;5131673;27;20075;-61
2021/12/23 05:23:25;;;;;;;19.40;14.13;;;0.50;99.90;;;;;;5103741;27;20083;-60
2021/12/23 05:25:51;;;;;;;19.40;15.00;;;0.40;99.90;;;;;;5106553;28;20036;-60
2021/12/23 05:28:16;;;;;;;20.65;14.93;;;0.50;99.90;;;;;;5102188;28;20098;-60
2021/12/23 05:30:42;;;;;;;19.08;13.68;;;0.30;99.90;;;;;;5133684;27;20035;-60
2021/12/23 05:33:08;;;;;;;19.17;13.98;;;0.30;99.90;;;;;;5103207;27;20036;-60
2021/12/23 05:35:33;;;;;;;17.08;13.48;;;0.40;99.90;;;;;;5103382;27;20070;-60
2021/12/23 05:37:59;;;;;;;21.95;14.88;;;0.30;99.90;;;;;;5101209;27;20815;-60
2021/12/23 05:40:28;;;;;;;20.67;15.27;;;0.40;99.90;;;;;;5101865;28;20559;-61
2021/12/23 05:42:55;;;;;;;20.98;14.98;;;0.30;99.90;;;;;;5099867;28;20035;-60
2021/12/23 05:45:20;;;;;;;21.27;15.10;;;0.30;99.90;;;;;;5102812;28;20497;-61
2021/12/23 05:47:47;;;;;;;18.98;15.43;;;0.30;99.90;;;;;;5101187;27;20059;-60
2021/12/23 05:50:14;;;;;;;20.38;15.60;;;0.30;99.90;;;;;;5098174;27;20079;-60
2021/12/23 05:52:40;;;;;;;21.20;14.45;;;0.30;99.90;;;;;;5108750;27;20565;-60
2021/12/23 05:55:08;;;;;;;18.33;13.60;;;0.20;99.90;;;;;;5098919;28;20411;-60
2021/12/23 05:57:35;;;;;;;22.80;15.43;;;0.30;99.90;;;;;;5099994;28;20036;-60
2021/12/23 06:00:00;;;;;;;20.25;15.82;;;0.30;99.90;;;;;;5102277;28;20446;-61
2021/12/23 06:02:26;;;;;;;21.13;15.25;;;0.30;99.90;;;;;;5103658;27;20036;-61
2021/12/23 06:04:53;;;;;;;20.80;15.45;;;0.30;99.90;;;;;;5104517;27;20031;-60
2021/12/23 06:07:21;;;;;;;20.23;14.75;;;0.20;99.90;;;;;;5100665;27;20494;-60
2021/12/23 06:09:47;;;;;;;20.30;14.77;;;0.30;99.90;;;;;;5133615;27;20504;-60
2021/12/23 06:12:13;;;;;;;21.08;15.48;;;0.40;99.90;;;;;;5114442;27;20047;-61
2021/12/23 06:14:39;;;;;;;21.58;15.82;;;0.30;99.90;;;;;;5102396;28;20072;-60
2021/12/23 06:17:05;;;;;;;22.00;15.43;;;0.40;99.90;;;;;;5103000;27;20097;-60
2021/12/23 06:19:31;;;;;;;23.45;16.00;;;0.30;99.90;;;;;;5099978;28;20038;-61
2021/12/23 06:21:57;;;;;;;21.02;15.63;;;0.20;99.90;;;;;;5094354;28;20048;-60
2021/12/23 06:24:22;;;;;;;24.63;15.43;;;0.40;99.90;;;;;;5096880;28;20611;-60
2021/12/23 06:26:48;;;;;;;20.83;16.00;;;0.40;99.90;;;;;;5094720;28;20047;-60
2021/12/23 06:29:14;;;;;;;20.60;15.60;;;0.70;99.90;;;;;;5096794;28;20044;-60
2021/12/23 06:31:40;;;;;;;20.05;14.60;;;0.40;99.90;;;;;;5096003;28;20039;-61
2021/12/23 06:34:05;;;;;;;23.38;15.02;;;0.50;99.90;;;;;;5129669;27;20035;-60
2021/12/23 06:36:31;;;;;;;22.20;15.75;;;0.40;99.90;;;;;;5092251;28;20733;-60
2021/12/23 06:38:57;;;;;;;23.30;15.25;;;0.40;99.90;;;;;;5128313;27;20054;-60
2021/12/23 06:41:22;;;;;;;22.48;16.50;;;0.40;99.90;;;;;;5095346;28;20036;-60
2021/12/23 06:43:48;;;;;;;23.40;15.70;;;0.40;99.90;;;;;;5100094;27;20040;-60
2021/12/23 06:46:14;;;;;;;19.65;16.45;;;0.50;99.90;;;;;;5130107;27;20076;-60
2021/12/23 06:48:39;;;;;;;25.20;17.20;;;0.40;99.90;;;;;;5097490;27;20563;-60
2021/12/23 06:51:05;;;;;;;23.13;15.80;;;0.40;99.90;;;;;;5097806;28;20040;-60
2021/12/23 06:53:31;;;;;;;22.70;16.30;;;0.50;99.90;;;;;;5111289;27;20128;-60
2021/12/23 06:55:57;;;;;;;18.55;14.43;;;0.50;99.90;;;;;;5100787;28;20039;-60
2021/12/23 06:58:24;;;;;;;21.85;16.38;;;0.50;99.90;;;;;;5100399;28;20524;-60
2021/12/23 07:00:52;;;;;;;21.42;17.05;;;0.50;99.90;;;;;;5100974;28;20032;-60
2021/12/23 07:03:18;;;;;;;23.65;17.02;;;0.60;99.90;;;;;;5097014;27;20044;-60
2021/12/23 07:05:44;;;;;;;25.05;17.00;;;0.50;99.90;;;;;;5095664;28;20047;-60
2021/12/23 07:08:25;;;;;;;23.30;15.82;;;0.50;99.90;;;;;;5101276;28;20743;-61
2021/12/23 07:11:06;;;;;;;24.02;16.60;;;0.50;99.90;;;;;;5097300;28;20051;-60
2021/12/23 07:13:32;;;;;;;24.25;16.45;;;0.50;99.90;;;;;;5097426;28;20036;-60
2021/12/23 07:16:00;;;;;;;23.67;16.83;;;0.50;99.90;;;;;;5098082;28;20066;-60
2021/12/23 07:18:26;;;;;;;23.38;16.73;;;0.50;99.90;;;;;;5097404;27;20371;-61
2021/12/23 07:20:52;;;;;;;24.52;16.52;;;0.50;99.90;;;;;;5097596;28;20039;-60
2021/12/23 07:23:17;;;;;;;21.60;17.00;;;0.50;99.90;;;;;;5093465;28;20036;-61
2021/12/23 07:25:43;;;;;;;21.13;16.70;;;0.50;99.90;;;;;;5097903;28;20039;-60
2021/12/23 07:28:09;;;;;;;23.50;16.98;;;0.40;99.90;;;;;;5096105;28;20039;-61
2021/12/23 07:30:35;;;;;;;22.25;16.50;;;0.50;99.90;;;;;;5098954;28;20119;-61
2021/12/23 07:33:00;;;;;;;23.17;17.77;;;0.40;99.90;;;;;;5097193;28;20427;-60
2021/12/23 07:35:26;;;;;;;21.50;17.40;;;0.40;99.90;;;;;;5098049;27;21093;-61
2021/12/23 07:37:52;;;;;;;24.40;17.23;;;0.50;99.90;;;;;;5097067;28;20502;-60
2021/12/23 07:40:18;;;;;;;23.25;17.73;;;0.50;99.90;;;;;;5097122;28;20039;-60
2021/12/23 07:42:54;;;;;;;26.92;18.17;;;0.70;99.90;;;;;;5097963;27;20039;-60
2021/12/23 07:45:22;;;;;;;26.58;18.67;;;0.50;99.90;;;;;;5096352;28;20058;-61
2021/12/23 07:47:48;;;;;;;24.35;18.42;;;0.50;99.90;;;;;;5098458;27;20176;-60
2021/12/23 07:50:13;;;;;;;22.02;17.65;;;0.50;99.90;;;;;;5098484;28;20039;-60
2021/12/23 07:52:39;;;;;;;22.85;17.38;;;0.50;99.90;;;;;;5095209;28;20032;-60
2021/12/23 07:55:05;;;;;;;25.55;16.85;;;0.50;99.90;;;;;;5099422;28;20051;-60
2021/12/23 07:57:31;;;;;;;26.00;18.83;;;0.40;99.90;;;;;;5100128;27;20043;-60
2021/12/23 07:59:58;;;;;;;23.60;17.33;;;0.50;99.90;;;;;;5100166;28;21582;-60
2021/12/23 08:02:24;;;;;;;24.35;17.85;;;0.40;99.90;;;;;;5098460;28;20040;-60
2021/12/23 08:04:50;;;;;;;24.77;18.17;;;0.50;99.90;;;;;;5094494;28;20047;-60
2021/12/23 08:07:16;;;;;;;25.35;19.98;;;0.40;99.90;;;;;;5097483;28;20482;-60
2021/12/23 08:09:41;;;;;;;25.77;18.20;;;0.60;99.90;;;;;;5102016;27;20108;-60
2021/12/23 08:12:08;;;;;;;25.63;18.77;;;0.50;99.90;;;;;;5099082;28;20047;-60
2021/12/23 08:14:34;;;;;;;29.58;19.30;;;0.40;99.90;;;;;;5102485;28;20046;-60
2021/12/23 08:17:00;;;;;;;29.98;19.05;;;0.50;99.90;;;;;;5100443;28;20433;-60
2021/12/23 08:19:26;;;;;;;28.52;19.67;;;0.40;99.90;;;;;;5095128;28;20126;-60
2021/12/23 08:21:51;;;;;;;26.00;20.10;;;0.50;99.90;;;;;;5097237;28;20040;-60
2021/12/23 08:24:17;;;;;;;31.17;20.42;;;0.40;99.90;;;;;;5094920;28;20043;-60
2021/12/23 08:26:50;;;;;;;28.50;21.40;;;0.40;99.90;;;;;;5095288;28;20098;-60
2021/12/23 08:29:18;;;;;;;29.08;19.55;;;0.60;99.90;;;;;;5096372;28;20063;-60
2021/12/23 08:31:53;;;;;;;26.25;19.45;;;0.50;99.90;;;;;;5130696;27;20054;-60
2021/12/23 08:34:24;;;;;;;22.10;18.50;;;0.40;99.90;;;;;;5097395;28;20074;-60
2021/12/23 08:36:51;;;;;;;31.80;21.00;;;0.40;99.90;;;;;;5098391;28;20147;-60
2021/12/23 08:39:18;;;;;;;26.73;19.40;;;0.40;99.90;;;;;;5096629;28;20063;-60
2021/12/23 08:41:44;;;;;;;30.33;21.67;;;0.40;99.90;;;;;;5099591;28;20047;-60
2021/12/23 08:44:10;;;;;;;27.08;20.42;;;0.40;99.90;;;;;;5097327;28;20044;-60
2021/12/23 08:46:36;;;;;;;26.63;19.73;;;0.50;99.90;;;;;;5095332;28;20054;-60
2021/12/23 08:49:05;;;;;;;29.92;21.10;;;0.50;99.90;;;;;;5130940;27;20394;-60
2021/12/23 08:51:33;;;;;;;31.50;22.52;;;0.80;99.90;;;;;;5099404;28;20115;-60
2021/12/23 08:53:59;;;;;;;28.15;22.25;;;0.50;99.90;;;;;;5132947;27;20660;-60
2021/12/23 08:56:24;;;;;;;33.58;23.23;;;0.50;99.90;;;;;;5101983;28;20039;-60
2021/12/23 08:58:50;;;;;;;30.33;22.20;;;0.70;99.90;;;;;;5099889;28;20077;-60
2021/12/23 09:01:17;;;;;;;31.95;23.48;;;0.60;99.90;;;;;;5099719;28;20085;-60
2021/12/23 09:03:42;;;;;;;34.22;23.52;;;0.60;99.90;;;;;;5100095;28;20035;-60
2021/12/23 09:06:08;;;;;;;33.78;22.83;;;0.60;99.90;;;;;;5099881;27;20047;-60
2021/12/23 09:08:34;;;;;;;36.67;22.00;;;0.80;99.90;;;;;;5101152;27;20082;-60
2021/12/23 09:11:00;;;;;;;33.72;24.10;;;0.60;99.90;;;;;;5100428;28;20043;-61
2021/12/23 09:13:26;;;;;;;34.13;25.35;;;0.80;99.90;;;;;;5096978;28;20457;-60
2021/12/23 09:17:14;;;;;;;35.70;24.52;;;0.50;99.90;;;;;;5113765;27;21748;-60
2021/12/23 09:19:40;;;;;;;40.33;26.92;;;0.50;99.90;;;;;;5095711;28;20061;-61
2021/12/23 09:22:08;;;;;;;36.92;26.67;;;0.60;99.90;;;;;;5126242;27;20429;-60
2021/12/23 09:24:35;;;;;;;36.30;26.33;;;0.80;99.90;;;;;;5098814;28;20391;-61
2021/12/23 09:27:20;;;;;;;38.63;26.15;;;0.60;99.90;;;;;;5114507;28;20035;-60
2021/12/23 09:34:59;;;;;;;;;;;0.60;99.90;;;;;;5126966;27;20043;-61
2021/12/23 09:37:26;;;;;;;42.55;27.73;;;0.60;99.90;;;;;;5100391;27;19926;-61
2021/12/23 09:39:55;;;;;;;42.88;28.73;;;0.60;99.90;;;;;;5099434;28;20054;-60
2021/12/23 09:42:28;;;;;;;46.85;29.40;;;0.60;99.90;;;;;;5084612;28;20521;-61
2021/12/23 09:44:58;;;;;;;46.15;30.45;;;0.70;99.90;;;;;;5125572;27;20047;-61
2021/12/23 09:47:29;;;;;;;46.95;30.42;;;0.60;99.90;;;;;;5094578;28;20478;-60
2021/12/23 09:49:59;;;;;;;44.85;29.67;;;0.60;99.90;;;;;;5113022;28;20055;-60
2021/12/23 09:52:29;;;;;;;48.58;31.10;;;0.70;99.90;;;;;;5127083;27;20055;-61
2021/12/23 09:54:56;;;;;;;47.72;31.08;;;0.60;99.90;;;;;;5094246;28;20664;-61
2021/12/23 09:57:22;;;;;;;48.53;30.17;;;0.70;99.90;;;;;;5095210;28;20043;-60
2021/12/23 09:59:48;;;;;;;49.83;31.95;;;0.60;99.90;;;;;;5114240;28;20036;-60
2021/12/23 10:02:15;;;;;;;50.38;32.20;;;0.70;99.90;;;;;;5117790;28;20027;-61
2021/12/23 10:04:40;;;;;;;54.85;31.27;;;0.70;99.90;;;;;;5079037;28;20040;-60
2021/12/23 10:07:06;;;;;;;52.33;32.00;;;0.70;99.90;;;;;;5113986;27;20046;-61
2021/12/23 10:09:44;;;;;;;50.20;31.70;;;0.70;99.90;;;;;;5114598;27;20031;-61
2021/12/23 10:27:06;;;;;;;55.42;33.08;;;0.80;99.90;;;;;;5113180;28;20044;-61
2021/12/23 10:39:42;;;;;;;51.75;33.25;;;0.90;99.90;;;;;;5100077;27;20055;-61
2021/12/23 10:42:14;;;;;;;57.30;35.25;;;0.90;99.90;;;;;;5101898;28;20036;-61
2021/12/23 10:44:51;;;;;;;56.20;34.03;;;0.80;99.90;;;;;;5100879;28;20115;-61
2021/12/23 10:48:02;;;;;;;51.95;32.25;;;0.80;99.90;;;;;;5080448;28;20039;-60
2021/12/23 10:50:39;;;;;;;54.03;32.83;;;0.90;99.90;;;;;;5079472;28;20048;-61
2021/12/23 10:53:15;;;;;;;58.25;34.70;;;0.90;99.90;;;;;;5100725;27;20063;-61
2021/12/23 10:58:26;;;;;;;54.75;32.15;;;0.90;99.90;;;;;;5101324;27;20050;-60
2021/12/23 11:00:59;;;;;;;58.25;34.72;;;0.90;99.90;;;;;;5078199;28;20118;-60
2021/12/23 11:06:21;;;;;;;57.42;33.92;;;0.90;99.90;;;;;;5114890;27;20058;-60
2021/12/23 11:08:56;;;;;;;61.38;34.70;;;0.90;99.90;;;;;;5068663;28;20043;-60
2021/12/23 11:11:40;;;;;;;56.67;34.17;;;0.90;99.90;;;;;;5081171;28;20127;-60
2021/12/23 11:37:04;;;;;;;58.40;35.60;;;0.90;99.90;;;;;;5083241;28;20043;-60
2021/12/23 11:42:30;;;;;;;57.60;34.30;;;0.90;99.90;;;;;;5099198;28;20385;-60
2021/12/23 11:44:56;;;;;;;59.38;34.75;;;1.00;99.90;;;;;;5077809;28;20063;-60
2021/12/23 11:47:24;;;;;;;58.88;33.97;;;0.90;99.90;;;;;;5077786;28;20040;-61
2021/12/23 11:49:51;;;;;;;61.95;35.03;;;1.00;99.90;;;;;;5113528;27;20036;-60
2021/12/23 11:52:16;;;;;;;57.95;35.65;;;0.90;99.90;;;;;;5115404;27;20051;-61
2021/12/23 11:54:45;;;;;;;60.97;35.75;;;1.00;99.90;;;;;;5097953;28;20047;-61
2021/12/23 11:57:19;;;;;;;60.30;34.75;;;1.00;99.90;;;;;;5081866;28;20131;-61
2021/12/23 11:59:58;;;;;;;58.47;34.53;;;1.00;99.90;;;;;;5110690;27;20032;-61
2021/12/23 12:02:25;;;;;;;57.63;33.63;;;1.00;99.90;;;;;;5112255;27;20036;-60
2021/12/23 12:04:59;;;;;;;60.15;35.85;;;1.00;99.90;;;;;;5080305;28;20032;-60
2021/12/23 12:07:25;;;;;;;63.83;36.97;;;1.00;99.90;;;;;;5098749;28;20510;-60
2021/12/23 12:10:02;;;;;;;64.82;36.53;;;1.00;99.90;;;;;;5078987;28;20043;-61
2021/12/23 12:12:30;;;;;;;59.40;34.42;;;1.00;99.90;;;;;;5081889;28;20135;-61
2021/12/23 12:14:57;;;;;;;58.08;34.75;;;1.00;99.90;;;;;;5099502;27;20428;-60
2021/12/23 12:17:25;;;;;;;57.70;34.05;;;1.30;99.90;;;;;;5081550;28;20081;-60
2021/12/23 12:20:10;;;;;;;57.65;35.03;;;1.10;99.90;;;;;;5097498;28;20032;-60
2021/12/23 12:22:45;;;;;;;56.75;33.60;;;1.10;99.90;;;;;;5079419;28;20039;-60
2021/12/23 12:25:23;;;;;;;58.67;33.63;;;1.10;99.90;;;;;;5082728;28;20513;-60
2021/12/23 12:27:55;;;;;;;57.78;34.28;;;1.10;99.90;;;;;;5099045;28;20043;-61
2021/12/23 12:30:38;;;;;;;54.47;33.25;;;1.10;99.90;;;;;;5101314;27;20054;-60
2021/12/23 12:33:27;;;;;;;54.63;33.40;;;1.10;99.90;;;;;;5085157;28;20100;-61
2021/12/23 12:36:04;;;;;;;55.95;34.25;;;1.10;99.90;;;;;;5087867;28;20040;-61
2021/12/23 12:38:31;;;;;;;59.75;35.05;;;1.10;99.90;;;;;;5081937;28;20043;-60
2021/12/23 12:41:03;;;;;;;55.38;33.60;;;1.20;99.90;;;;;;5098106;28;20165;-60
2021/12/23 12:43:36;;;;;;;55.15;33.60;;;1.20;99.90;;;;;;5080244;28;20043;-60
2021/12/23 12:46:02;;;;;;;59.88;34.53;;;1.20;99.90;;;;;;5099226;28;20375;-60
2021/12/23 12:48:56;;;;;;;57.03;33.30;;;1.30;99.90;;;;;;5101425;28;20050;-60
2021/12/23 12:51:24;;;;;;;56.95;34.28;;;1.20;99.90;;;;;;5080575;28;20082;-60
2021/12/23 12:53:52;;;;;;;53.53;31.70;;;1.20;99.90;;;;;;5099542;28;20405;-60
2021/12/23 12:56:26;;;;;;;52.53;31.38;;;1.30;99.90;;;;;;5080540;28;20101;-61
2021/12/23 12:58:54;;;;;;;54.53;34.03;;;1.30;99.90;;;;;;5081751;28;20040;-60
2021/12/23 13:01:42;;;;;;;55.72;32.50;;;1.30;99.90;;;;;;5099812;28;20486;-60
2021/12/23 13:04:20;;;;;;;57.22;35.00;;;1.30;99.90;;;;;;5099718;28;20032;-60
2021/12/23 13:06:46;;;;;;;54.33;33.22;;;1.30;99.90;;;;;;5094546;28;20047;-60
2021/12/23 13:09:14;;;;;;;59.92;34.55;;;1.30;99.90;;;;;;5080724;28;20543;-60
2021/12/23 13:11:44;;;;;;;56.80;33.63;;;1.30;99.90;;;;;;5081849;28;20619;-60
2021/12/23 13:14:14;;;;;;;57.60;32.70;;;1.30;99.90;;;;;;5095586;28;20048;-60
2021/12/23 13:16:58;;;;;;;56.25;34.10;;;1.30;99.90;;;;;;5095566;28;20440;-60
2021/12/23 13:19:34;;;;;;;54.53;33.00;;;1.30;99.90;;;;;;5080020;28;20481;-60
2021/12/23 13:22:03;;;;;;;;;;;1.30;99.90;;;;;;5083217;28;20044;-60
2021/12/23 13:24:29;;;;;;;53.55;30.67;;;1.30;99.90;;;;;;5110006;27;19916;-60
2021/12/23 13:26:56;;;;;;;53.33;32.90;;;1.20;99.90;;;;;;5080364;28;20687;-60
2021/12/23 13:29:27;;;;;;;60.60;34.83;;;1.50;99.90;;;;;;5090604;28;20655;-60
2021/12/23 13:31:54;;;;;;;56.70;33.90;;;1.30;99.90;;;;;;5098213;28;20097;-60
2021/12/23 13:34:26;;;;;;;58.50;33.60;;;1.30;99.90;;;;;;5081397;28;20032;-60
2021/12/23 13:36:55;;;;;;;57.50;33.55;;;1.30;99.90;;;;;;5096344;28;20034;-60
2021/12/23 13:39:28;;;;;;;60.10;34.17;;;1.40;99.90;;;;;;5110783;27;20043;-60
2021/12/23 13:41:59;;;;;;;57.65;32.17;;;1.30;99.90;;;;;;5098864;28;20067;-60
2021/12/23 13:44:37;;;;;;;57.88;32.75;;;1.40;99.90;;;;;;5077504;28;20048;-60
2021/12/23 13:47:06;;;;;;;52.70;31.30;;;1.40;99.90;;;;;;5115129;27;20134;-60
2021/12/23 13:49:45;;;;;;;55.10;32.13;;;1.40;99.90;;;;;;5096816;28;20533;-60
2021/12/23 13:52:40;;;;;;;58.72;33.70;;;1.40;99.90;;;;;;5096146;28;20106;-60